createdAt,value
2023-05-01T00:00:12.433Z,82.58
2023-05-01T00:01:12.410Z,82.17
2023-05-01T00:02:12.461Z,81.44
2023-05-01T00:03:12.458Z,81.09
2023-05-01T00:04:12.541Z,80.88
2023-05-01T00:05:12.451Z,81.61
2023-05-01T00:06:12.366Z,81.61
2023-05-01T00:07:12.345Z,82.23
2023-05-01T00:08:12.322Z,80.88
2023-05-01T00:09:12.334Z,80.78
2023-05-01T00:10:14.034Z,81.40
2023-05-01T00:11:12.303Z,80.88
2023-05-01T00:12:12.317Z,81.30
2023-05-01T00:13:15.665Z,81.05
2023-05-01T00:14:12.271Z,81.16
2023-05-01T00:15:12.312Z,81.78
2023-05-01T00:16:12.290Z,80.85
2023-05-01T00:17:13.257Z,80.43
2023-05-01T00:18:12.353Z,80.12
2023-05-01T00:19:12.593Z,80.68
2023-05-01T00:20:12.716Z,81.20
2023-05-01T00:21:12.222Z,80.99
2023-05-01T00:22:12.235Z,81.20
2023-05-01T00:23:12.742Z,81.51
2023-05-01T00:24:12.211Z,81.82
2023-05-01T00:25:12.171Z,81.82
2023-05-01T00:26:15.785Z,81.92
2023-05-01T00:27:13.842Z,81.82
2023-05-01T00:28:13.753Z,81.65
2023-05-01T00:29:12.153Z,81.75
2023-05-01T00:30:12.126Z,81.65
2023-05-01T00:31:12.223Z,82.06
2023-05-01T00:32:12.163Z,83.10
2023-05-01T00:33:12.791Z,83.55
2023-05-01T00:34:12.118Z,83.97
2023-05-01T00:35:12.069Z,83.97
2023-05-01T00:36:12.150Z,84.38
2023-05-01T00:37:12.044Z,84.38
2023-05-01T00:38:12.063Z,84.48
2023-05-01T00:39:12.755Z,84.69
2023-05-01T00:40:14.059Z,84.94
2023-05-01T00:41:12.033Z,84.31
2023-05-01T00:42:12.001Z,84.73
2023-05-01T00:43:12.035Z,85.04
2023-05-01T00:44:12.798Z,85.35
2023-05-01T00:45:11.976Z,85.25
2023-05-01T00:46:12.009Z,85.14
2023-05-01T00:47:11.964Z,86.18
2023-05-01T00:48:12.039Z,86.08
2023-05-01T00:49:11.951Z,86.18
2023-05-01T00:50:11.988Z,86.29
2023-05-01T00:51:14.172Z,85.66
2023-05-01T00:52:11.923Z,85.29
2023-05-01T00:53:11.959Z,85.08
2023-05-01T00:54:11.919Z,86.22
2023-05-01T00:55:11.888Z,86.85
2023-05-01T00:56:11.867Z,86.74
2023-05-01T00:57:11.889Z,86.33
2023-05-01T00:58:11.879Z,85.60
2023-05-01T00:59:11.854Z,85.91
2023-05-01T01:00:11.815Z,85.39
2023-05-01T01:01:11.836Z,85.43
2023-05-01T01:02:11.880Z,85.12
2023-05-01T01:03:11.791Z,86.16
2023-05-01T01:04:12.765Z,86.26
2023-05-01T01:05:11.759Z,86.68
2023-05-01T01:06:11.793Z,87.40
2023-05-01T01:07:13.540Z,88.02
2023-05-01T01:08:11.767Z,87.71
2023-05-01T01:09:11.735Z,87.57
2023-05-01T01:10:11.758Z,87.05
2023-05-01T01:11:11.718Z,86.91
2023-05-01T01:12:13.222Z,86.49
2023-05-01T01:13:12.419Z,85.66
2023-05-01T01:14:11.718Z,85.81
2023-05-01T01:15:12.384Z,84.67
2023-05-01T01:16:11.661Z,85.71
2023-05-01T01:17:11.763Z,85.85
2023-05-01T01:18:11.709Z,87.71
2023-05-01T01:19:11.631Z,88.54
2023-05-01T01:20:11.611Z,88.96
2023-05-01T01:21:11.647Z,88.96
2023-05-01T01:22:11.614Z,88.54
2023-05-01T01:23:11.571Z,88.54
2023-05-01T01:24:11.577Z,88.54
2023-05-01T01:25:11.616Z,88.44
2023-05-01T01:26:11.590Z,88.85
2023-05-01T01:27:11.557Z,88.96
2023-05-01T01:28:11.534Z,88.96
2023-05-01T01:29:11.531Z,88.85
2023-05-01T01:30:12.031Z,87.82
2023-05-01T01:31:11.548Z,87.92
2023-05-01T01:32:11.529Z,87.61
2023-05-01T01:33:12.265Z,87.51
2023-05-01T01:34:11.482Z,88.54
2023-05-01T01:35:11.453Z,88.85
2023-05-01T01:36:11.500Z,89.62
2023-05-01T01:37:11.416Z,89.83
2023-05-01T01:38:11.421Z,90.10
2023-05-01T01:39:11.400Z,89.79
2023-05-01T01:40:11.410Z,89.21
2023-05-01T01:41:11.415Z,88.28
2023-05-01T01:42:11.392Z,88.17
2023-05-01T01:43:11.381Z,89.21
2023-05-01T01:44:11.374Z,89.87
2023-05-01T01:45:11.350Z,90.70
2023-05-01T01:46:11.491Z,90.19
2023-05-01T01:47:11.352Z,89.98
2023-05-01T01:48:11.384Z,89.98
2023-05-01T01:49:13.322Z,90.54
2023-05-01T01:50:11.341Z,91.37
2023-05-01T01:51:12.101Z,91.37
2023-05-01T01:52:11.294Z,91.95
2023-05-01T01:53:11.276Z,92.26
2023-05-01T01:54:11.267Z,91.85
2023-05-01T01:55:11.278Z,91.53
2023-05-01T01:56:11.273Z,91.33
2023-05-01T01:57:11.251Z,91.53
2023-05-01T01:58:11.223Z,91.58
2023-05-01T01:59:11.229Z,92.05
2023-05-01T02:00:11.398Z,91.02
2023-05-01T02:01:11.964Z,91.16
2023-05-01T02:02:11.383Z,91.06
2023-05-01T02:03:11.270Z,91.27
2023-05-01T02:04:12.349Z,92.30
2023-05-01T02:05:11.201Z,92.93
2023-05-01T02:06:11.248Z,93.14
2023-05-01T02:07:11.159Z,92.30
2023-05-01T02:08:11.137Z,92.93
2023-05-01T02:09:11.116Z,93.03
2023-05-01T02:10:11.119Z,92.93
2023-05-01T02:11:11.100Z,92.30
2023-05-01T02:12:11.144Z,92.05
2023-05-01T02:13:11.321Z,91.95
2023-05-01T02:14:11.064Z,92.05
2023-05-01T02:15:11.078Z,91.85
2023-05-01T02:16:11.101Z,92.26
2023-05-01T02:17:11.050Z,91.85
2023-05-01T02:18:11.045Z,91.95
2023-05-01T02:19:11.020Z,91.95
2023-05-01T02:20:13.215Z,91.53
2023-05-01T02:21:11.001Z,91.64
2023-05-01T02:22:11.022Z,91.39
2023-05-01T02:23:11.575Z,90.77
2023-05-01T02:24:12.585Z,90.56
2023-05-01T02:25:10.974Z,90.56
2023-05-01T02:26:29.952Z,90.45
2023-05-01T02:27:10.940Z,88.85
2023-05-01T02:28:12.481Z,88.61
2023-05-01T02:29:10.948Z,88.20
2023-05-01T02:30:10.952Z,87.22
2023-05-01T02:31:10.975Z,86.08
2023-05-01T02:32:10.892Z,85.00
2023-05-01T02:33:10.957Z,84.69
2023-05-01T02:34:10.863Z,84.07
2023-05-01T02:35:10.841Z,84.28
2023-05-01T02:36:10.853Z,84.38
2023-05-01T02:37:11.773Z,84.13
2023-05-01T02:38:10.857Z,83.00
2023-05-01T02:39:10.808Z,82.75
2023-05-01T02:40:10.804Z,81.71
2023-05-01T02:41:10.788Z,81.05
2023-05-01T02:42:10.917Z,80.74
2023-05-01T02:43:10.766Z,80.95
2023-05-01T02:44:10.765Z,80.95
2023-05-01T02:45:11.495Z,80.54
2023-05-01T02:46:11.508Z,80.54
2023-05-01T02:47:11.688Z,80.43
2023-05-01T02:48:10.759Z,79.91
2023-05-01T02:49:10.725Z,79.47
2023-05-01T02:50:11.396Z,79.26
2023-05-01T02:51:10.688Z,79.47
2023-05-01T02:52:11.062Z,80.12
2023-05-01T02:53:10.694Z,80.54
2023-05-01T02:54:10.674Z,80.43
2023-05-01T02:55:12.368Z,80.54
2023-05-01T02:56:10.651Z,79.71
2023-05-01T02:57:10.640Z,80.74
2023-05-01T02:58:10.583Z,80.12
2023-05-01T02:59:13.685Z,80.54
2023-05-01T03:00:10.598Z,80.57
2023-05-01T03:01:10.603Z,80.88
2023-05-01T03:02:10.533Z,80.47
2023-05-01T03:03:10.552Z,80.78
2023-05-01T03:04:10.602Z,80.88
2023-05-01T03:05:13.010Z,81.40
2023-05-01T03:06:10.535Z,81.71
2023-05-01T03:07:12.350Z,81.51
2023-05-01T03:08:10.491Z,81.82
2023-05-01T03:09:10.559Z,82.48
2023-05-01T03:10:11.282Z,81.85
2023-05-01T03:11:11.278Z,81.65
2023-05-01T03:12:10.433Z,81.54
2023-05-01T03:13:10.413Z,80.78
2023-05-01T03:14:10.432Z,81.30
2023-05-01T03:15:10.408Z,80.88
2023-05-01T03:16:10.440Z,81.02
2023-05-01T03:17:10.368Z,81.34
2023-05-01T03:18:10.403Z,80.26
2023-05-01T03:19:10.389Z,79.64
2023-05-01T03:20:10.406Z,79.74
2023-05-01T03:21:10.358Z,79.33
2023-05-01T03:22:10.335Z,79.23
2023-05-01T03:23:10.299Z,78.99
2023-05-01T03:24:10.342Z,78.78
2023-05-01T03:25:13.397Z,78.67
2023-05-01T03:26:10.285Z,78.05
2023-05-01T03:27:10.264Z,77.95
2023-05-01T03:28:10.273Z,77.50
2023-05-01T03:29:11.199Z,78.02
2023-05-01T03:30:10.332Z,77.74
2023-05-01T03:31:10.269Z,77.09
2023-05-01T03:32:10.973Z,76.46
2023-05-01T03:33:10.240Z,76.46
2023-05-01T03:34:10.197Z,76.67
2023-05-01T03:35:10.219Z,76.46
2023-05-01T03:36:10.224Z,76.26
2023-05-01T03:37:10.189Z,76.46
2023-05-01T03:38:10.372Z,77.09
2023-05-01T03:39:10.303Z,76.46
2023-05-01T03:40:10.149Z,75.95
2023-05-01T03:41:10.165Z,76.15
2023-05-01T03:42:10.120Z,76.26
2023-05-01T03:43:10.107Z,75.43
2023-05-01T03:44:10.127Z,76.36
2023-05-01T03:45:10.080Z,76.26
2023-05-01T03:46:10.145Z,75.29
2023-05-01T03:47:10.062Z,74.98
2023-05-01T03:48:10.148Z,74.36
2023-05-01T03:49:10.676Z,74.67
2023-05-01T03:50:10.421Z,74.26
2023-05-01T03:51:10.026Z,74.77
2023-05-01T03:52:10.046Z,74.57
2023-05-01T03:53:09.999Z,74.77
2023-05-01T03:54:10.009Z,73.94
2023-05-01T03:55:10.724Z,74.88
2023-05-01T03:56:09.984Z,73.94
2023-05-01T03:57:12.340Z,74.26
2023-05-01T03:58:09.964Z,74.36
2023-05-01T03:59:09.948Z,74.36
2023-05-01T04:00:09.991Z,75.19
2023-05-01T04:01:09.937Z,74.98
2023-05-01T04:02:11.528Z,75.43
2023-05-01T04:03:09.944Z,75.74
2023-05-01T04:04:09.980Z,76.19
2023-05-01T04:05:09.883Z,76.29
2023-05-01T04:06:09.923Z,78.67
2023-05-01T04:07:09.880Z,77.01
2023-05-01T04:08:09.895Z,76.50
2023-05-01T04:09:09.843Z,76.19
2023-05-01T04:10:09.898Z,77.64
2023-05-01T04:11:09.832Z,75.12
2023-05-01T04:12:09.843Z,75.12
2023-05-01T04:13:10.664Z,75.74
2023-05-01T04:14:09.814Z,75.12
2023-05-01T04:15:09.824Z,75.53
2023-05-01T04:16:09.820Z,74.36
2023-05-01T04:17:09.768Z,73.94
2023-05-01T04:18:09.870Z,73.54
2023-05-01T04:19:11.310Z,73.71
2023-05-01T04:20:09.745Z,75.81
2023-05-01T04:21:09.731Z,74.46
2023-05-01T04:22:09.763Z,74.15
2023-05-01T05:28:30.362Z,58.42
2023-05-01T05:29:31.003Z,58.52
2023-05-01T05:30:31.023Z,58.31
2023-05-01T05:31:31.025Z,58.11
2023-05-01T05:32:31.085Z,58.29
2023-05-01T05:33:30.961Z,58.08
2023-05-01T05:34:30.967Z,57.88
2023-05-01T05:35:31.292Z,57.57
2023-05-01T05:36:30.961Z,57.36
2023-05-01T05:37:30.941Z,57.23
2023-05-01T05:38:30.916Z,56.82
2023-05-01T05:39:30.907Z,56.72
2023-05-01T05:40:30.907Z,56.72
2023-05-01T05:41:30.880Z,56.93
2023-05-01T05:42:30.922Z,57.03
2023-05-01T05:43:30.868Z,56.79
2023-05-01T05:44:30.844Z,56.18
2023-05-01T05:45:33.161Z,56.08
2023-05-01T05:46:31.696Z,55.95
2023-05-01T05:47:30.844Z,55.54
2023-05-01T05:48:31.803Z,55.72
2023-05-01T05:49:30.797Z,54.61
2023-05-01T05:50:30.800Z,54.61
2023-05-01T05:51:30.814Z,54.61
2023-05-01T05:52:30.791Z,54.18
2023-05-01T05:53:30.783Z,54.05
2023-05-01T05:54:30.765Z,53.51
2023-05-01T05:55:30.750Z,53.41
2023-05-01T05:56:30.752Z,52.44
2023-05-01T05:57:32.433Z,51.57
2023-05-01T05:58:34.823Z,49.68
2023-05-01T05:59:30.691Z,48.21
2023-05-01T06:00:30.802Z,47.67
2023-05-01T06:01:30.685Z,45.59
2023-05-01T06:02:30.823Z,45.26
2023-05-01T06:03:30.773Z,44.65
2023-05-01T06:04:30.684Z,44.75
2023-05-01T06:05:30.725Z,44.43
2023-05-01T06:06:30.721Z,43.69
2023-05-01T06:07:30.646Z,43.38
2023-05-01T06:08:30.651Z,43.26
2023-05-01T06:09:30.604Z,43.06
2023-05-01T06:10:30.680Z,42.65
2023-05-01T06:11:30.579Z,41.92
2023-05-01T06:12:30.607Z,41.38
2023-05-01T06:13:30.568Z,40.75
2023-05-01T06:14:30.570Z,40.42
2023-05-01T06:15:30.562Z,39.59
2023-05-01T06:16:30.623Z,38.96
2023-05-01T06:17:30.567Z,38.66
2023-05-01T06:18:30.545Z,38.66
2023-05-01T06:19:30.501Z,39.08
2023-05-01T06:20:30.495Z,38.88
2023-05-01T06:21:30.483Z,39.06
2023-05-01T06:22:31.834Z,37.99
2023-05-01T06:23:30.483Z,37.16
2023-05-01T06:24:30.496Z,36.94
2023-05-01T06:25:30.441Z,36.14
2023-05-01T06:26:30.434Z,36.32
2023-05-01T06:27:30.414Z,36.54
2023-05-01T06:28:30.424Z,36.66
2023-05-01T06:29:30.401Z,37.73
2023-05-01T06:30:30.417Z,37.69
2023-05-01T06:31:30.434Z,37.49
2023-05-01T06:32:30.395Z,37.15
2023-05-01T06:33:30.890Z,35.72
2023-05-01T06:34:32.925Z,35.80
2023-05-01T06:35:30.365Z,35.38
2023-05-01T06:36:30.361Z,35.17
2023-05-01T06:37:30.502Z,34.57
2023-05-01T06:38:30.307Z,34.95
2023-05-01T06:39:30.485Z,34.89
2023-05-01T06:40:30.287Z,34.69
2023-05-01T06:41:30.285Z,34.91
2023-05-01T06:42:30.286Z,35.53
2023-05-01T06:43:30.254Z,35.61
2023-05-01T06:44:32.625Z,35.19
2023-05-01T06:45:30.239Z,35.01
2023-05-01T06:46:31.305Z,35.95
2023-05-01T06:47:30.257Z,35.83
2023-05-01T06:48:30.204Z,35.63
2023-05-01T06:49:30.622Z,35.09
2023-05-01T06:50:30.183Z,34.03
2023-05-01T06:51:30.172Z,33.19
2023-05-01T06:52:30.233Z,32.79
2023-05-01T06:53:30.136Z,32.79
2023-05-01T06:54:30.166Z,32.27
2023-05-01T06:55:30.135Z,32.92
2023-05-01T06:56:30.138Z,33.21
2023-05-01T06:57:30.148Z,32.99
2023-05-01T06:58:31.750Z,32.67
2023-05-01T06:59:30.102Z,32.37
2023-05-01T07:00:30.127Z,31.93
2023-05-01T07:01:31.166Z,31.65
2023-05-01T07:02:30.170Z,32.07
2023-05-01T07:03:30.112Z,32.37
2023-05-01T07:04:30.049Z,32.26
2023-05-01T07:05:30.617Z,32.24
2023-05-01T07:06:30.073Z,30.90
2023-05-01T07:07:30.025Z,31.13
2023-05-01T07:08:29.992Z,31.63
2023-05-01T07:09:29.972Z,31.00
2023-05-01T07:10:30.844Z,30.58
2023-05-01T07:11:29.959Z,30.71
2023-05-01T07:12:29.970Z,31.76
2023-05-01T07:13:29.924Z,31.87
2023-05-01T07:14:29.950Z,32.57
2023-05-01T07:15:29.926Z,32.57
2023-05-01T07:16:29.960Z,32.29
2023-05-01T07:17:29.945Z,32.60
2023-05-01T07:18:29.907Z,33.01
2023-05-01T07:19:31.426Z,33.54
2023-05-01T07:20:29.896Z,33.19
2023-05-01T07:21:29.859Z,32.66
2023-05-01T07:22:29.846Z,31.95
2023-05-01T07:23:29.828Z,32.05
2023-05-01T07:24:31.692Z,31.33
2023-05-01T07:25:31.781Z,31.87
2023-05-01T07:26:33.003Z,32.05
2023-05-01T07:27:29.797Z,31.53
2023-05-01T07:28:31.357Z,31.73
2023-05-01T07:29:30.662Z,32.47
2023-05-01T07:30:31.643Z,32.69
2023-05-01T07:31:29.785Z,32.46
2023-05-01T07:32:31.311Z,32.26
2023-05-01T07:33:29.752Z,32.35
2023-05-01T07:34:31.382Z,31.93
2023-05-01T07:35:31.640Z,31.71
2023-05-01T07:36:30.728Z,30.90
2023-05-01T07:37:29.692Z,32.44
2023-05-01T07:38:29.686Z,32.37
2023-05-01T07:39:30.831Z,34.03
2023-05-01T07:40:29.679Z,34.13
2023-05-01T07:41:29.637Z,34.35
2023-05-01T07:42:29.634Z,34.86
2023-05-01T07:43:29.616Z,34.12
2023-05-01T07:44:29.645Z,33.72
2023-05-01T07:45:29.599Z,33.72
2023-05-01T07:46:29.981Z,33.58
2023-05-01T07:47:29.613Z,32.76
2023-05-01T07:48:29.620Z,32.66
2023-05-01T07:49:29.576Z,32.66
2023-05-01T07:50:29.574Z,32.96
2023-05-01T07:51:30.494Z,32.69
2023-05-01T07:52:29.546Z,32.67
2023-05-01T07:53:29.516Z,32.66
2023-05-01T07:54:29.513Z,32.34
2023-05-01T07:55:29.548Z,32.04
2023-05-01T07:56:29.500Z,32.26
2023-05-01T07:57:29.490Z,32.15
2023-05-01T07:58:29.477Z,32.35
2023-05-01T07:59:29.883Z,32.67
2023-05-01T08:00:29.450Z,33.61
2023-05-01T08:01:29.464Z,33.39
2023-05-01T08:02:29.545Z,33.18
2023-05-01T08:03:29.794Z,31.60
2023-05-01T08:04:29.533Z,31.59
2023-05-01T08:05:29.388Z,30.55
2023-05-01T08:06:29.484Z,30.04
2023-05-01T08:07:29.360Z,29.94
2023-05-01T08:08:29.399Z,29.94
2023-05-01T08:09:29.348Z,30.05
2023-05-01T08:10:29.337Z,30.15
2023-05-01T08:11:29.349Z,31.19
2023-05-01T08:12:29.341Z,31.19
2023-05-01T08:13:29.361Z,31.82
2023-05-01T08:14:29.294Z,32.46
2023-05-01T08:15:29.296Z,32.86
2023-05-01T08:16:29.312Z,32.23
2023-05-01T08:17:30.786Z,31.49
2023-05-01T08:18:29.256Z,31.59
2023-05-01T08:19:29.287Z,31.59
2023-05-01T08:20:29.231Z,31.07
2023-05-01T08:21:29.270Z,30.76
2023-05-01T08:22:29.232Z,30.35
2023-05-01T08:23:29.219Z,30.27
2023-05-01T08:24:29.197Z,30.55
2023-05-01T08:25:29.217Z,29.31
2023-05-01T08:26:29.235Z,29.32
2023-05-01T08:27:29.228Z,29.53
2023-05-01T08:28:29.167Z,30.79
2023-05-01T08:29:29.182Z,30.07
2023-05-01T08:30:29.163Z,29.95
2023-05-01T08:31:29.169Z,30.58
2023-05-01T08:32:29.196Z,30.15
2023-05-01T08:33:29.143Z,29.22
2023-05-01T08:34:29.107Z,29.53
2023-05-01T08:35:30.624Z,28.91
2023-05-01T08:36:29.090Z,28.26
2023-05-01T08:37:29.114Z,27.23
2023-05-01T08:38:29.067Z,27.14
2023-05-01T08:39:29.076Z,26.41
2023-05-01T08:40:29.033Z,26.72
2023-05-01T08:41:29.044Z,26.50
2023-05-01T08:42:30.468Z,26.29
2023-05-01T08:43:29.049Z,26.59
2023-05-01T08:44:29.012Z,25.91
2023-05-01T08:45:31.791Z,26.22
2023-05-01T08:46:29.072Z,26.53
2023-05-01T08:47:30.783Z,26.43
2023-05-01T08:48:28.949Z,26.42
2023-05-01T08:49:28.955Z,25.93
2023-05-01T08:50:28.940Z,26.34
2023-05-01T08:51:28.957Z,26.54
2023-05-01T08:52:28.914Z,26.46
2023-05-01T08:53:28.946Z,26.89
2023-05-01T08:54:28.900Z,27.29
2023-05-01T08:55:28.904Z,26.89
2023-05-01T08:56:28.891Z,27.40
2023-05-01T08:57:28.865Z,27.17
2023-05-01T08:58:28.847Z,26.66
2023-05-01T08:59:28.843Z,27.17
2023-05-01T09:00:28.831Z,27.19
2023-05-01T09:01:28.942Z,26.67
2023-05-01T09:02:28.854Z,26.98
2023-05-01T09:03:28.962Z,27.29
2023-05-01T09:04:28.784Z,26.87
2023-05-01T09:05:28.796Z,25.84
2023-05-01T09:06:28.890Z,25.41
2023-05-01T09:07:28.762Z,25.02
2023-05-01T09:08:28.757Z,24.62
2023-05-01T09:09:28.748Z,25.02
2023-05-01T09:10:28.745Z,24.73
2023-05-01T09:11:28.792Z,25.72
2023-05-01T09:12:28.700Z,24.52
2023-05-01T09:13:28.703Z,24.72
2023-05-01T09:14:28.680Z,25.14
2023-05-01T09:15:28.719Z,25.46
2023-05-01T09:16:28.728Z,26.08
2023-05-01T09:17:28.713Z,27.41
2023-05-01T09:18:28.699Z,27.42
2023-05-01T09:19:28.645Z,27.41
2023-05-01T09:20:28.652Z,27.09
2023-05-01T09:21:28.622Z,26.34
2023-05-01T09:22:28.608Z,25.41
2023-05-01T09:23:28.636Z,24.51
2023-05-01T09:24:28.583Z,24.52
2023-05-01T09:25:28.596Z,25.11
2023-05-01T09:26:28.566Z,25.10
2023-05-01T09:27:28.574Z,25.62
2023-05-01T09:28:28.563Z,25.61
2023-05-01T09:29:28.539Z,24.91
2023-05-01T09:30:28.544Z,25.92
2023-05-01T09:31:28.770Z,26.25
2023-05-01T09:32:28.878Z,25.83
2023-05-01T09:33:28.536Z,24.99
2023-05-01T09:34:28.488Z,24.88
2023-05-01T09:35:28.491Z,25.43
2023-05-01T09:36:28.464Z,27.15
2023-05-01T09:37:28.552Z,25.51
2023-05-01T09:38:28.460Z,26.04
2023-05-01T09:39:28.444Z,26.84
2023-05-01T09:40:28.425Z,26.92
2023-05-01T09:41:28.427Z,25.40
2023-05-01T09:42:28.414Z,24.86
2023-05-01T09:43:28.517Z,23.55
2023-05-01T09:44:28.400Z,24.47
2023-05-01T09:45:30.450Z,24.57
2023-05-01T09:46:28.381Z,23.95
2023-05-01T09:47:28.393Z,23.61
2023-05-01T09:48:28.476Z,23.63
2023-05-01T09:49:28.334Z,23.84
2023-05-01T09:50:28.352Z,23.86
2023-05-01T09:51:28.348Z,24.68
2023-05-01T09:52:28.309Z,24.77
2023-05-01T09:53:28.305Z,24.04
2023-05-01T09:54:28.286Z,23.42
2023-05-01T09:55:28.310Z,23.52
2023-05-01T09:56:28.271Z,23.12
2023-05-01T09:57:28.437Z,23.63
2023-05-01T09:58:28.273Z,23.84
2023-05-01T09:59:28.273Z,24.57
2023-05-01T10:00:28.257Z,24.79
2023-05-01T10:01:28.347Z,24.88
2023-05-01T10:02:28.309Z,24.15
2023-05-01T10:03:28.282Z,23.84
2023-05-01T10:04:28.189Z,23.64
2023-05-01T10:05:28.225Z,24.25
2023-05-01T10:06:28.224Z,23.43
2023-05-01T10:07:28.185Z,23.93
2023-05-01T10:08:28.146Z,23.61
2023-05-01T10:09:28.155Z,23.82
2023-05-01T10:10:28.150Z,23.83
2023-05-01T10:11:28.169Z,24.32
2023-05-01T10:12:28.110Z,23.49
2023-05-01T10:13:28.112Z,22.99
2023-05-01T10:14:28.150Z,22.27
2023-05-01T10:15:28.121Z,21.95
2023-05-01T10:16:28.097Z,20.84
2023-05-01T10:17:28.099Z,20.65
2023-05-01T10:18:29.053Z,22.91
2023-05-01T10:19:28.046Z,23.00
2023-05-01T10:20:28.049Z,22.89
2023-05-01T10:21:28.031Z,23.10
2023-05-01T10:22:28.017Z,23.30
2023-05-01T10:23:28.019Z,23.49
2023-05-01T10:24:28.016Z,22.78
2023-05-01T10:25:27.989Z,22.77
2023-05-01T10:26:28.000Z,23.26
2023-05-01T10:27:27.971Z,23.60
2023-05-01T10:28:27.946Z,23.50
2023-05-01T10:29:27.985Z,23.91
2023-05-01T10:30:27.925Z,23.61
2023-05-01T10:31:27.973Z,24.14
2023-05-01T10:32:27.963Z,23.91
2023-05-01T10:33:27.917Z,23.39
2023-05-01T10:34:28.505Z,23.93
2023-05-01T10:35:27.892Z,25.15
2023-05-01T10:36:27.880Z,24.22
2023-05-01T10:37:27.858Z,23.19
2023-05-01T10:38:27.842Z,23.52
2023-05-01T10:39:27.881Z,24.02
2023-05-01T10:40:27.855Z,24.54
2023-05-01T10:41:27.824Z,24.33
2023-05-01T10:42:27.812Z,23.94
2023-05-01T10:43:27.959Z,24.33
2023-05-01T10:44:27.792Z,24.33
2023-05-01T10:45:27.799Z,24.14
2023-05-01T10:46:27.802Z,24.32
2023-05-01T10:47:27.862Z,24.24
2023-05-01T10:48:27.744Z,24.65
2023-05-01T10:49:27.746Z,24.86
2023-05-01T10:50:27.751Z,25.57
2023-05-01T10:51:28.394Z,25.87
2023-05-01T10:52:27.700Z,25.87
2023-05-01T10:53:27.699Z,25.59
2023-05-01T10:54:27.704Z,25.89
2023-05-01T10:55:27.694Z,25.24
2023-05-01T10:56:27.676Z,25.13
2023-05-01T10:57:28.552Z,24.62
2023-05-01T10:58:27.642Z,23.76
2023-05-01T10:59:27.895Z,23.07
2023-05-01T11:00:27.604Z,23.15
2023-05-01T11:01:27.713Z,22.16
2023-05-01T11:02:27.673Z,22.06
2023-05-01T11:03:27.590Z,22.78
2023-05-01T11:04:27.615Z,23.41
2023-05-01T11:05:38.053Z,23.80
2023-05-01T11:06:29.405Z,22.99
2023-05-01T11:07:27.569Z,22.06
2023-05-01T11:08:27.600Z,22.34
2023-05-01T11:09:27.570Z,22.36
2023-05-01T11:10:27.547Z,23.78
2023-05-01T11:11:27.515Z,23.49
2023-05-01T11:12:27.501Z,23.60
2023-05-01T11:13:27.493Z,24.41
2023-05-01T11:14:27.502Z,25.04
2023-05-01T11:15:27.505Z,25.70
2023-05-01T11:16:27.524Z,26.93
2023-05-01T11:17:27.497Z,27.23
2023-05-01T11:18:27.454Z,27.56
2023-05-01T11:20:27.413Z,28.38
2023-05-01T11:21:27.419Z,28.38
2023-05-01T11:22:27.402Z,28.28
2023-05-01T11:23:28.128Z,28.78
2023-05-01T11:24:27.412Z,28.56
2023-05-01T11:25:28.027Z,28.53
2023-05-01T11:26:27.361Z,27.41
2023-05-01T11:27:27.380Z,27.92
2023-05-01T11:28:27.338Z,27.94
2023-05-01T11:29:27.320Z,28.66
2023-05-01T11:30:27.321Z,28.88
2023-05-01T11:31:27.318Z,28.88
2023-05-01T11:32:27.387Z,28.56
2023-05-01T11:33:27.295Z,27.78
2023-05-01T11:34:27.340Z,28.10
2023-05-01T11:35:27.272Z,27.90
2023-05-01T11:36:27.274Z,28.82
2023-05-01T11:37:27.252Z,28.31
2023-05-01T11:38:27.241Z,28.00
2023-05-01T11:39:27.267Z,27.87
2023-05-01T11:40:27.201Z,28.25
2023-05-01T11:41:27.246Z,26.58
2023-05-01T11:42:27.217Z,25.24
2023-05-01T11:43:28.011Z,24.20
2023-05-01T11:44:27.187Z,23.08
2023-05-01T11:45:27.175Z,23.07
2023-05-01T11:46:27.242Z,22.78
2023-05-01T11:47:27.242Z,22.97
2023-05-01T11:48:27.179Z,22.34
2023-05-01T11:49:27.155Z,22.22
2023-05-01T11:50:27.109Z,21.10
2023-05-01T11:51:27.119Z,21.31
2023-05-01T11:52:27.083Z,21.83
2023-05-01T11:53:27.095Z,21.83
2023-05-01T11:54:27.096Z,21.52
2023-05-01T11:55:27.048Z,21.51
2023-05-01T11:56:27.682Z,22.44
2023-05-01T11:57:27.044Z,22.03
2023-05-01T11:58:27.028Z,21.61
2023-05-01T11:59:27.044Z,21.00
2023-05-01T12:00:27.004Z,21.01
2023-05-01T12:01:27.029Z,21.43
2023-05-01T12:02:27.050Z,21.74
2023-05-01T12:03:27.454Z,21.53
2023-05-01T12:04:29.628Z,21.53
2023-05-01T12:05:26.972Z,22.14
2023-05-01T12:06:26.959Z,22.03
2023-05-01T12:07:26.962Z,21.23
2023-05-01T12:08:26.945Z,21.74
2023-05-01T12:09:26.985Z,22.97
2023-05-01T12:10:26.908Z,24.02
2023-05-01T12:11:26.910Z,23.72
2023-05-01T12:12:26.918Z,22.33
2023-05-01T12:13:27.039Z,20.81
2023-05-01T12:14:26.865Z,20.60
2023-05-01T12:15:26.877Z,19.88
2023-05-01T12:16:26.895Z,20.09
2023-05-01T12:17:26.943Z,19.67
2023-05-01T12:18:26.882Z,19.27
2023-05-01T12:19:26.829Z,19.37
2023-05-01T12:20:26.805Z,19.17
2023-05-01T12:21:26.811Z,19.97
2023-05-01T12:22:26.843Z,20.78
2023-05-01T12:23:26.780Z,21.69
2023-05-01T12:24:26.764Z,22.30
2023-05-01T12:25:26.765Z,21.78
2023-05-01T12:26:26.758Z,22.09
2023-05-01T12:27:26.802Z,22.18
2023-05-01T12:28:27.565Z,21.66
2023-05-01T12:29:26.719Z,20.94
2023-05-01T12:30:26.717Z,20.78
2023-05-01T12:31:26.741Z,21.59
2023-05-01T12:32:28.567Z,22.20
2023-05-01T12:33:26.681Z,22.29
2023-05-01T12:34:26.664Z,21.44
2023-05-01T12:35:26.686Z,21.26
2023-05-01T12:36:28.308Z,21.27
2023-05-01T12:37:26.625Z,21.90
2023-05-01T12:38:26.658Z,22.72
2023-05-01T12:39:28.291Z,22.61
2023-05-01T12:40:28.266Z,22.40
2023-05-01T12:41:26.596Z,21.89
2023-05-01T12:42:26.605Z,22.08
2023-05-01T12:43:26.606Z,21.35
2023-05-01T12:44:27.369Z,20.83
2023-05-01T12:45:27.098Z,19.82
2023-05-01T12:46:31.420Z,20.05
2023-05-01T12:47:28.119Z,21.28
2023-05-01T12:48:28.136Z,21.26
2023-05-01T12:49:26.507Z,20.35
2023-05-01T12:50:28.056Z,19.94
2023-05-01T12:51:28.096Z,20.04
2023-05-01T12:52:28.109Z,19.52
2023-05-01T12:53:26.497Z,19.52
2023-05-01T12:54:26.466Z,19.32
2023-05-01T12:55:26.461Z,19.22
2023-05-01T12:56:26.444Z,19.94
2023-05-01T12:57:26.439Z,21.37
2023-05-01T12:58:26.420Z,21.08
2023-05-01T12:59:26.414Z,20.95
2023-05-01T13:00:26.438Z,20.95
2023-05-01T13:01:26.391Z,20.95
2023-05-01T13:02:26.580Z,21.49
2023-05-01T13:03:26.470Z,21.90
2023-05-01T13:04:26.430Z,22.31
2023-05-01T13:05:26.341Z,22.71
2023-05-01T13:06:29.413Z,22.40
2023-05-01T13:07:26.345Z,22.40
2023-05-01T13:08:26.327Z,22.40
2023-05-01T13:09:26.296Z,22.18
2023-05-01T13:10:26.298Z,21.69
2023-05-01T13:11:27.054Z,21.88
2023-05-01T13:12:26.316Z,21.57
2023-05-01T13:13:26.284Z,21.68
2023-05-01T13:14:26.257Z,21.98
2023-05-01T13:15:26.246Z,22.99
2023-05-01T13:16:26.282Z,22.40
2023-05-01T13:17:26.253Z,22.08
2023-05-01T13:18:26.247Z,21.98
2023-05-01T13:19:26.199Z,21.58
2023-05-01T13:20:26.203Z,21.47
2023-05-01T13:21:26.202Z,21.89
2023-05-01T13:22:26.195Z,22.10
2023-05-01T13:23:26.175Z,22.19
2023-05-01T13:24:26.170Z,22.29
2023-05-01T13:25:26.184Z,22.77
2023-05-01T13:26:26.166Z,20.97
2023-05-01T13:27:26.136Z,21.98
2023-05-01T13:28:26.114Z,22.08
2023-05-01T13:29:26.122Z,21.96
2023-05-01T13:30:26.101Z,21.56
2023-05-01T13:31:26.138Z,21.55
2023-05-01T13:32:26.135Z,21.44
2023-05-01T13:33:26.060Z,21.76
2023-05-01T13:34:26.083Z,22.60
2023-05-01T13:35:30.994Z,23.83
2023-05-01T13:36:27.720Z,23.08
2023-05-01T13:37:26.059Z,22.16
2023-05-01T13:38:26.019Z,21.96
2023-05-01T13:39:26.012Z,21.85
2023-05-01T13:40:26.021Z,21.06
2023-05-01T13:41:26.392Z,21.15
2023-05-01T13:42:25.992Z,21.17
2023-05-01T13:43:25.962Z,20.65
2023-05-01T13:44:25.991Z,20.97
2023-05-01T13:45:26.938Z,20.95
2023-05-01T13:46:26.186Z,20.94
2023-05-01T13:47:28.982Z,20.34
2023-05-01T13:48:27.527Z,20.34
2023-05-01T13:49:26.629Z,19.82
2023-05-01T13:50:25.960Z,20.21
2023-05-01T13:51:27.379Z,20.32
2023-05-01T13:52:27.531Z,21.45
2023-05-01T13:53:28.871Z,22.06
2023-05-01T13:54:25.855Z,20.94
2023-05-01T13:55:25.873Z,20.42
2023-05-01T13:56:27.500Z,20.22
2023-05-01T13:57:26.424Z,20.01
2023-05-01T13:58:27.492Z,19.71